Time;durP1;ratioP1;P1;durP2;ratioP2;P2;SDS_P1;SDS_P2;PMS_P1;PMS_P2;Temp;Humidity;BMP_temperature;BMP_pressure;BME280_temperature;BME280_humidity;BME280_pressure;Samples;Min_cycle;Max_cycle;Signal;HPM_P1;HPM_P2
2022/12/04 00:01:03;;;;;;;;;;;;;;;4.61;57.66;101757.31;4958579;28;119244;-68
2022/12/04 00:03:31;;;;;;;;;;;;;;;4.61;57.82;101752.06;4958631;28;119689;-68
2022/12/04 00:06:11;;;;;;;;;;;;;;;4.61;57.83;101752.06;4951326;28;124933;-68
2022/12/04 00:08:38;;;;;;;;;;;;;;;4.61;57.85;101752.06;4930574;28;123960;-68
2022/12/04 00:11:06;;;;;;;;;;;;;;;4.61;58.05;101746.81;4952936;28;119709;-68
2022/12/04 00:13:33;;;;;;;;;;;;;;;4.61;57.97;101752.94;4957151;28;119573;-68
2022/12/04 00:16:02;;;;;;;;;;;;;;;4.60;57.88;101745.09;4959362;28;124046;-68
2022/12/04 00:18:29;;;;;;;;;;;;;;;4.60;57.72;101739.84;4950558;28;124978;-68
2022/12/04 00:20:56;;;;;;;;;;;;;;;4.61;58.01;101746.81;4948346;28;120416;-68
2022/12/04 00:23:23;;;;;;;;;;;;;;;4.61;57.97;101741.56;4943013;28;118225;-68
2022/12/04 00:25:52;;;;;;;;;;;;;;;4.62;58.03;101748.56;4956461;28;124481;-67
2022/12/04 00:28:18;;;;;;;;;;;;;;;4.63;58.05;101752.91;4956249;28;124135;-68
2022/12/04 00:30:45;;;;;;;;;;;;;;;4.62;57.99;101744.19;4940186;28;119827;-68
2022/12/04 00:33:12;;;;;;;;;;;;;;;4.62;58.07;101744.19;4961640;28;118472;-67
2022/12/04 00:35:39;;;;;;;;;;;;;;;4.65;58.03;101744.19;4952525;28;124284;-68
2022/12/04 00:38:06;;;;;;;;;;;;;;;4.67;58.01;101738.91;4955156;28;124594;-68
2022/12/04 00:40:33;;;;;;;;;;;;;;;4.69;57.84;101739.78;4953225;28;120074;-68
2022/12/04 00:43:00;;;;;;;;;;;;;;;4.70;57.98;101740.66;4952450;28;118842;-68
2022/12/04 00:45:27;;;;;;;;;;;;;;;4.69;57.98;101734.53;4946544;28;125048;-68
2022/12/04 00:47:54;;;;;;;;;;;;;;;4.67;58.06;101731.03;4952105;28;123985;-68
2022/12/04 00:50:21;;;;;;;;;;;;;;;4.68;57.69;101735.41;4953555;28;119202;-68
2022/12/04 00:52:47;;;;;;;;;;;;;;;4.66;57.62;101729.31;4940283;28;117545;-68
2022/12/04 00:55:14;;;;;;;;;;;;;;;4.67;57.96;101736.28;4954665;28;124031;-68
2022/12/04 00:57:41;;;;;;;;;;;;;;;4.66;57.72;101729.31;4931935;28;124178;-68
2022/12/04 01:00:08;;;;;;;;;;;;;;;4.66;57.71;101734.56;4955625;28;119923;-68
2022/12/04 01:02:35;;;;;;;;;;;;;;;4.66;58.04;101729.31;4957474;28;118695;-68
2022/12/04 01:05:02;;;;;;;;;;;;;;;4.66;57.68;101735.41;4941665;28;124096;-68
2022/12/04 01:07:29;;;;;;;;;;;;;;;4.65;57.80;101732.78;4936455;28;124897;-68
2022/12/04 01:09:56;;;;;;;;;;;;;;;4.64;57.84;101736.31;4952534;28;120603;-68
2022/12/04 01:12:23;;;;;;;;;;;;;;;4.64;57.80;101736.31;4956405;28;119149;-68
2022/12/04 01:14:50;;;;;;;;;;;;;;;4.63;57.87;101745.94;4950737;28;124206;-68
2022/12/04 01:17:17;;;;;;;;;;;;;;;4.63;58.10;101745.06;4946672;28;124544;-68
2022/12/04 01:19:44;;;;;;;;;;;;;;;4.63;57.88;101745.06;4939080;28;119034;-68
2022/12/04 01:22:11;;;;;;;;;;;;;;;4.63;57.99;101751.19;4955396;28;118768;-68
2022/12/04 01:24:38;;;;;;;;;;;;;;;4.64;58.19;101752.06;4945779;28;123866;-68
2022/12/04 01:27:05;;;;;;;;;;;;;;;4.66;58.12;101745.03;4932429;28;123931;-70
2022/12/04 01:29:32;;;;;;;;;;;;;;;4.67;58.05;101752.03;4956811;28;120572;-68
2022/12/04 01:31:59;;;;;;;;;;;;;;;4.68;57.92;101754.63;4942425;28;120230;-68
2022/12/04 01:34:26;;;;;;;;;;;;;;;4.70;58.00;101746.75;4955756;28;123566;-68
2022/12/04 01:36:53;;;;;;;;;;;;;;;4.68;58.03;101748.53;4955795;28;123932;-68
2022/12/04 01:39:19;;;;;;;;;;;;;;;4.69;58.11;101750.28;4954410;28;119377;-68
2022/12/04 01:41:46;;;;;;;;;;;;;;;4.69;57.85;101745.03;4956965;28;119205;-68
2022/12/04 01:44:20;;;;;;;;;;;;;;;4.67;57.71;101736.28;4954175;28;124277;-67
2022/12/04 01:46:55;;;;;;;;;;;;;;;4.66;57.73;101745.03;4945228;28;124012;-68
2022/12/04 01:49:40;;;;;;;;;;;;;;;4.66;57.81;101734.56;4960275;28;120172;-67
2022/12/04 01:52:14;;;;;;;;;;;;;;;4.66;57.96;101731.94;4937055;28;119081;-68
2022/12/04 01:54:43;;;;;;;;;;;;;;;4.67;58.11;101731.03;4944338;28;124701;-68
2022/12/04 01:57:14;;;;;;;;;;;;;;;4.69;57.87;101724.06;4958365;28;124222;-68
2022/12/04 01:59:44;;;;;;;;;;;;;;;4.70;58.06;101720.53;4951197;28;121369;-68
2022/12/04 02:02:13;;;;;;;;;;;;;;;4.72;57.89;101724.00;4954394;28;118569;-68
2022/12/04 02:04:41;;;;;;;;;;;;;;;4.72;58.14;101729.25;4955836;28;124173;-68
2022/12/04 02:07:08;;;;;;;;;;;;;;;4.72;57.76;101726.63;4956741;28;124622;-68
2022/12/04 02:09:35;;;;;;;;;;;;;;;4.71;57.95;101732.78;4945023;28;120240;-68
2022/12/04 02:12:11;;;;;;;;;;;;;;;4.72;57.78;101737.13;4960219;28;118767;-68
2022/12/04 02:14:47;;;;;;;;;;;;;;;4.71;57.87;101738.03;4953837;28;123733;-68
2022/12/04 02:17:31;;;;;;;;;;;;;;;4.70;57.96;101736.28;4955559;28;124003;-68
2022/12/04 02:20:04;;;;;;;;;;;;;;;4.70;57.74;101741.50;4940881;28;120070;-67
2022/12/04 02:22:44;;;;;;;;;;;;;;;4.68;57.79;101736.28;4955109;28;119365;-68
2022/12/04 02:25:11;;;;;;;;;;;;;;;4.70;58.12;101740.66;4947931;28;124314;-68
2022/12/04 02:27:38;;;;;;;;;;;;;;;4.71;58.04;101732.78;4957982;28;123917;-68
2022/12/04 02:30:09;;;;;;;;;;;;;;;4.70;58.07;101731.03;4957146;28;118506;-68
2022/12/04 02:32:39;;;;;;;;;;;;;;;4.70;58.02;101731.03;4946768;28;117515;-68
2022/12/04 02:35:22;;;;;;;;;;;;;;;4.70;57.99;101736.28;4953703;28;123330;-68
2022/12/04 02:37:53;;;;;;;;;;;;;;;4.69;58.11;101724.06;4938551;28;123432;-68
2022/12/04 02:40:28;;;;;;;;;;;;;;;4.70;58.11;101725.78;4955234;28;119434;-68
2022/12/04 02:43:07;;;;;;;;;;;;;;;4.72;57.90;101724.00;4954904;28;118708;-68
2022/12/04 02:45:37;;;;;;;;;;;;;;;4.74;57.87;101722.25;4923725;28;124265;-67
2022/12/04 02:48:05;;;;;;;;;;;;;;;4.74;58.03;101724.88;4958206;28;124988;-68
2022/12/04 02:50:38;;;;;;;;;;;;;;;4.76;58.08;101725.72;4948581;28;119625;-68
2022/12/04 02:53:08;;;;;;;;;;;;;;;4.77;58.02;101716.97;4949436;28;118404;-68
2022/12/04 02:55:42;;;;;;;;;;;;;;;4.77;58.00;101716.97;4935477;28;123722;-67
2022/12/04 02:58:19;;;;;;;;;;;;;;;4.77;57.62;101710.88;4955012;28;124360;-66
2022/12/04 03:00:46;;;;;;;;;;;;;;;4.77;57.79;101716.97;4961367;28;119110;-68
2022/12/04 03:03:18;;;;;;;;;;;;;;;4.77;57.98;101714.34;4953505;28;118915;-68
2022/12/04 03:05:52;;;;;;;;;;;;;;;4.78;58.06;101718.72;4952268;28;122055;-68
2022/12/04 03:08:22;;;;;;;;;;;;;;;4.77;57.92;101711.75;4953032;28;123735;-67
2022/12/04 03:10:52;;;;;;;;;;;;;;;4.78;57.65;101716.09;4955997;28;119339;-68
2022/12/04 03:13:21;;;;;;;;;;;;;;;4.78;57.81;101718.72;4960285;28;118864;-68
2022/12/04 03:16:09;;;;;;;;;;;;;;;4.78;57.76;101718.72;4951290;28;123089;-68
2022/12/04 03:18:36;;;;;;;;;;;;;;;4.79;57.76;101715.22;4960884;28;124053;-68
2022/12/04 03:21:06;;;;;;;;;;;;;;;4.79;57.79;101715.22;4955996;28;119702;-68
2022/12/04 03:23:36;;;;;;;;;;;;;;;4.79;57.69;101704.72;4955676;28;118598;-68
2022/12/04 03:26:21;;;;;;;;;;;;;;;4.79;57.98;101699.47;4950807;28;124906;-68
2022/12/04 03:28:55;;;;;;;;;;;;;;;4.78;57.83;101702.97;4940441;28;123804;-68
2022/12/04 03:31:37;;;;;;;;;;;;;;;4.77;58.04;101706.50;4954250;28;119446;-67
2022/12/04 03:34:04;;;;;;;;;;;;;;;4.77;57.87;101706.50;4954739;28;120102;-68
2022/12/04 03:36:45;;;;;;;;;;;;;;;4.78;57.98;101702.97;4954631;28;124135;-68
2022/12/04 03:39:22;;;;;;;;;;;;;;;4.78;57.79;101705.59;4954318;28;123670;-68
2022/12/04 03:42:07;;;;;;;;;;;;;;;4.76;57.69;101709.97;4951397;28;120370;-68
2022/12/04 03:44:57;;;;;;;;;;;;;;;4.76;57.97;101706.50;4955644;28;119798;-68
2022/12/04 03:47:29;;;;;;;;;;;;;;;4.77;57.71;101701.25;4944695;28;123896;-68
2022/12/04 03:49:57;;;;;;;;;;;;;;;4.77;58.02;101696.00;4939891;28;124696;-68
2022/12/04 03:52:47;;;;;;;;;;;;;;;4.79;57.94;101698.59;4962476;28;119414;-68
2022/12/04 03:55:23;;;;;;;;;;;;;;;4.78;57.92;101697.72;4949325;28;119328;-68
2022/12/04 03:57:51;;;;;;;;;;;;;;;4.77;57.87;101696.00;4956345;28;124564;-68
2022/12/04 04:00:20;;;;;;;;;;;;;;;4.76;57.87;101699.47;4960370;28;123922;-67
2022/12/04 04:02:49;;;;;;;;;;;;;;;4.74;57.93;101696.00;4972561;28;119638;-68
2022/12/04 04:05:18;;;;;;;;;;;;;;;4.75;58.05;101702.13;4961199;28;120406;-67
2022/12/04 04:07:47;;;;;;;;;;;;;;;4.73;57.97;101704.78;4946903;28;125021;-68
2022/12/04 04:10:15;;;;;;;;;;;;;;;4.73;58.00;101704.78;4956855;28;124718;-68
2022/12/04 04:12:45;;;;;;;;;;;;;;;4.72;57.70;101703.00;4959413;28;119320;-68
2022/12/04 04:26:27;;;;;;;;;;;;;;;4.72;58.07;101700.38;4955159;28;118800;-68
2022/12/04 04:28:54;;;;;;;;;;;;;;;4.72;57.99;101703.00;4959729;28;123656;-68
2022/12/04 04:31:40;;;;;;;;;;;;;;;4.71;57.98;101696.03;4947071;28;123776;-67
2022/12/04 04:34:30;;;;;;;;;;;;;;;4.71;58.10;101696.03;4952615;28;121030;-68
2022/12/04 04:37:05;;;;;;;;;;;;;;;4.72;58.13;101697.78;4906452;28;118846;-68
2022/12/04 04:39:32;;;;;;;;;;;;;;;4.72;58.04;101691.66;4942838;28;123163;-68
2022/12/04 04:42:09;;;;;;;;;;;;;;;4.71;57.95;101693.41;4964497;28;124411;-68
2022/12/04 04:44:55;;;;;;;;;;;;;;;4.72;58.16;101697.78;4955865;28;119453;-68
2022/12/04 04:47:27;;;;;;;;;;;;;;;4.69;58.10;101697.81;4953090;28;118721;-67
2022/12/04 04:49:55;;;;;;;;;;;;;;;4.70;58.03;101694.28;4937344;28;123786;-68
2022/12/04 04:52:23;;;;;;;;;;;;;;;4.70;57.78;101699.53;4955140;28;123928;-68
2022/12/04 04:54:49;;;;;;;;;;;;;;;4.70;58.10;101699.53;4939440;28;118967;-68
2022/12/04 04:57:32;;;;;;;;;;;;;;;4.70;58.23;101701.28;4956110;28;118657;-68
2022/12/04 04:59:59;;;;;;;;;;;;;;;4.70;58.15;101703.91;4953816;28;124486;-67
2022/12/04 05:02:26;;;;;;;;;;;;;;;4.68;58.12;101701.31;4958873;28;126502;-68
2022/12/04 05:04:54;;;;;;;;;;;;;;;4.68;57.86;101701.31;4956019;28;120011;-68
2022/12/04 05:07:21;;;;;;;;;;;;;;;4.68;58.17;101696.91;4937881;28;118595;-68
2022/12/04 05:09:48;;;;;;;;;;;;;;;4.70;57.97;101699.53;4946076;28;124817;-68
2022/12/04 05:12:15;;;;;;;;;;;;;;;4.69;58.23;101703.06;4949395;28;122878;-68
2022/12/04 05:14:41;;;;;;;;;;;;;;;4.68;58.07;101706.53;4940694;28;119394;-68
2022/12/04 05:17:08;;;;;;;;;;;;;;;4.68;58.17;101711.78;4956661;28;119047;-68
2022/12/04 05:19:54;;;;;;;;;;;;;;;4.69;58.04;101703.06;4965149;28;125281;-68
2022/12/04 05:22:24;;;;;;;;;;;;;;;4.70;58.26;101704.78;4956918;28;124692;-68
2022/12/04 05:24:52;;;;;;;;;;;;;;;4.70;58.00;101710.03;4931020;28;120655;-68
2022/12/04 05:27:19;;;;;;;;;;;;;;;4.72;58.09;101707.41;4956682;28;120652;-68
2022/12/04 05:29:46;;;;;;;;;;;;;;;4.72;58.18;101703.00;4950622;28;124989;-68
2022/12/04 05:32:14;;;;;;;;;;;;;;;4.74;58.36;101701.25;4946693;28;122913;-68
2022/12/04 05:34:41;;;;;;;;;;;;;;;4.75;58.33;101703.00;4943503;28;119962;-68
2022/12/04 05:37:07;;;;;;;;;;;;;;;4.76;57.93;101707.34;4957629;28;119019;-68
2022/12/04 05:39:34;;;;;;;;;;;;;;;4.77;58.26;101705.63;4945948;28;124936;-68
2022/12/04 05:42:01;;;;;;;;;;;;;;;4.76;57.95;101699.47;4956885;28;124973;-68
2022/12/04 05:44:28;;;;;;;;;;;;;;;4.78;58.24;101692.47;4958257;28;120207;-68
2022/12/04 05:46:55;;;;;;;;;;;;;;;4.79;57.88;101702.09;4958760;28;118743;-68
2022/12/04 05:49:22;;;;;;;;;;;;;;;4.80;58.14;101700.34;4960316;28;124155;-68
2022/12/04 05:51:50;;;;;;;;;;;;;;;4.80;58.05;101703.84;4960491;28;124282;-68
2022/12/04 05:54:17;;;;;;;;;;;;;;;4.81;57.99;101692.44;4949078;28;119625;-68
2022/12/04 05:56:44;;;;;;;;;;;;;;;4.82;58.28;101690.69;4960671;28;118207;-68
2022/12/04 05:59:11;;;;;;;;;;;;;;;4.83;57.88;101693.31;4958700;28;124379;-68
2022/12/04 06:01:38;;;;;;;;;;;;;;;4.83;57.95;101695.94;4954901;28;123797;-68
2022/12/04 06:04:05;;;;;;;;;;;;;;;4.85;58.15;101693.31;4959275;28;119613;-68
2022/12/04 06:06:32;;;;;;;;;;;;;;;4.84;58.14;101692.44;4942469;28;118417;-68
2022/12/04 06:08:59;;;;;;;;;;;;;;;4.84;57.77;101687.19;4956049;28;123724;-68
2022/12/04 06:11:28;;;;;;;;;;;;;;;4.84;57.77;101692.44;4959757;28;124009;-68
2022/12/04 06:13:58;;;;;;;;;;;;;;;4.83;57.88;101680.19;4954343;28;121235;-68
2022/12/04 06:16:29;;;;;;;;;;;;;;;4.84;58.10;101683.66;4953570;28;121421;-68
2022/12/04 06:18:57;;;;;;;;;;;;;;;4.82;57.90;101678.47;4956907;28;124308;-68
2022/12/04 06:21:25;;;;;;;;;;;;;;;4.82;58.13;101682.81;4935804;28;124585;-68
2022/12/04 06:23:52;;;;;;;;;;;;;;;4.81;57.83;101684.59;4958544;28;119347;-68
2022/12/04 06:26:19;;;;;;;;;;;;;;;4.80;57.98;101682.84;4950909;28;120164;-68
2022/12/04 06:28:46;;;;;;;;;;;;;;;4.80;58.24;101684.59;4945106;28;124132;-68
2022/12/04 06:31:14;;;;;;;;;;;;;;;4.80;57.84;101685.47;4952412;28;123987;-68
2022/12/04 06:33:41;;;;;;;;;;;;;;;4.80;58.03;101684.59;4952682;28;119488;-68
2022/12/04 06:36:10;;;;;;;;;;;;;;;4.78;58.14;101687.22;4958391;28;121103;-68
2022/12/04 06:38:37;;;;;;;;;;;;;;;4.78;58.01;101681.97;4947666;28;123088;-68
2022/12/04 06:41:05;;;;;;;;;;;;;;;4.78;57.93;101686.34;4951279;28;124662;-68
2022/12/04 06:43:32;;;;;;;;;;;;;;;4.76;58.09;101683.72;4955372;28;120103;-68
2022/12/04 06:46:03;;;;;;;;;;;;;;;4.77;58.12;101684.63;4957960;28;118601;-68
2022/12/04 06:48:30;;;;;;;;;;;;;;;4.79;58.29;101688.97;4941118;28;125002;-68
2022/12/04 06:50:58;;;;;;;;;;;;;;;4.79;57.85;101693.34;4942182;28;123682;-68
2022/12/04 06:53:26;;;;;;;;;;;;;;;4.78;58.14;101697.72;4960575;28;119628;-67
2022/12/04 06:55:53;;;;;;;;;;;;;;;4.77;58.24;101701.25;4960957;28;118472;-68
2022/12/04 06:58:20;;;;;;;;;;;;;;;4.77;58.24;101701.25;4952961;28;124743;-68
2022/12/04 07:00:47;;;;;;;;;;;;;;;4.78;58.28;101702.97;4944601;28;124559;-68
2022/12/04 07:03:14;;;;;;;;;;;;;;;4.78;58.31;101697.72;4936126;28;119545;-68
2022/12/04 07:05:41;;;;;;;;;;;;;;;4.79;58.30;101704.72;4958869;28;119852;-68
2022/12/04 07:08:08;;;;;;;;;;;;;;;4.79;57.99;101709.97;4956234;28;124290;-67
2022/12/04 07:10:35;;;;;;;;;;;;;;;4.79;58.21;101704.72;4959865;28;124071;-68
2022/12/04 07:13:02;;;;;;;;;;;;;;;4.81;58.13;101707.34;4953935;28;119977;-67
2022/12/04 07:15:31;;;;;;;;;;;;;;;4.81;58.37;101707.34;4956547;28;118487;-68
2022/12/04 07:17:58;;;;;;;;;;;;;;;4.82;57.94;101715.22;4934204;28;123221;-68
2022/12/04 07:20:25;;;;;;;;;;;;;;;4.82;58.24;101720.47;4957651;28;124738;-68
2022/12/04 07:22:52;;;;;;;;;;;;;;;4.83;58.22;101721.31;4955298;28;119272;-68
2022/12/04 07:25:19;;;;;;;;;;;;;;;4.82;58.23;101720.47;4960486;28;118191;-68
2022/12/04 07:27:46;;;;;;;;;;;;;;;4.83;58.31;101722.19;4938137;28;124059;-68
2022/12/04 07:30:13;;;;;;;;;;;;;;;4.82;58.24;101724.81;4949141;28;123956;-67
2022/12/04 07:32:41;;;;;;;;;;;;;;;4.82;58.28;101725.72;4949596;28;119551;-68
2022/12/04 07:35:08;;;;;;;;;;;;;;;4.83;57.98;101730.06;4947433;28;118469;-68
2022/12/04 07:37:35;;;;;;;;;;;;;;;4.82;58.02;101730.94;4950433;28;124657;-68
2022/12/04 07:40:03;;;;;;;;;;;;;;;4.81;58.34;101731.81;4951387;28;124328;-67
2022/12/04 07:42:30;;;;;;;;;;;;;;;4.81;58.30;101723.94;4951476;28;118858;-68
2022/12/04 07:44:57;;;;;;;;;;;;;;;4.81;58.00;101723.09;4929695;28;117550;-67
2022/12/04 07:47:23;;;;;;;;;;;;;;;4.80;58.28;101722.22;4952322;28;124952;-68
2022/12/04 07:49:50;;;;;;;;;;;;;;;4.80;58.25;101716.97;4952642;28;124334;-68
2022/12/04 07:52:17;;;;;;;;;;;;;;;4.80;58.43;101721.31;4949365;28;120017;-68
2022/12/04 07:54:44;;;;;;;;;;;;;;;4.81;58.37;101723.94;4955137;28;119561;-68
2022/12/04 07:57:11;;;;;;;;;;;;;;;4.80;58.20;101730.09;4956959;28;124310;-68
2022/12/04 07:59:38;;;;;;;;;;;;;;;4.80;58.13;101732.72;4951276;28;124698;-68
2022/12/04 08:02:05;;;;;;;;;;;;;;;4.82;58.11;101736.19;4953979;28;119144;-68
2022/12/04 08:04:32;;;;;;;;;;;;;;;4.84;58.50;101733.53;4957309;28;118845;-68
2022/12/04 08:06:59;;;;;;;;;;;;;;;4.85;58.33;101730.91;4953843;28;123906;-68
2022/12/04 08:09:26;;;;;;;;;;;;;;;4.86;58.17;101737.91;4961763;28;124480;-68
2022/12/04 08:11:53;;;;;;;;;;;;;;;4.86;58.16;101742.31;4958000;28;120060;-68
2022/12/04 08:14:20;;;;;;;;;;;;;;;4.87;58.18;101744.88;4955082;28;119147;-68
2022/12/04 08:16:47;;;;;;;;;;;;;;;4.90;58.14;101737.88;4937732;28;123105;-68
2022/12/04 08:19:19;;;;;;;;;;;;;;;4.91;58.49;101750.13;4951197;28;124591;-68
2022/12/04 08:21:46;;;;;;;;;;;;;;;4.90;58.55;101749.28;4956431;28;118468;-67
2022/12/04 08:24:12;;;;;;;;;;;;;;;4.93;58.25;101758.88;4951095;28;118442;-68
2022/12/04 08:26:39;;;;;;;;;;;;;;;4.97;58.30;101755.34;4957430;28;124875;-68
2022/12/04 08:29:06;;;;;;;;;;;;;;;4.99;58.20;101753.56;4963210;28;124007;-68
2022/12/04 08:31:34;;;;;;;;;;;;;;;5.00;58.08;101756.19;4936527;28;119272;-68
2022/12/04 08:34:03;;;;;;;;;;;;;;;5.03;58.21;101757.94;4953505;28;118796;-68
2022/12/04 08:36:30;;;;;;;;;;;;;;;5.04;58.14;101746.53;4952270;28;124843;-68
2022/12/04 08:38:58;;;;;;;;;;;;;;;5.05;58.20;101754.41;4950395;28;123848;-68
2022/12/04 08:41:25;;;;;;;;;;;;;;;5.06;58.36;101744.75;4948711;28;120068;-68
2022/12/04 08:43:53;;;;;;;;;;;;;;;5.07;57.95;101746.53;4945923;28;119094;-69
2022/12/04 08:46:21;;;;;;;;;;;;;;;5.07;58.20;101741.28;4956203;28;125105;-68
2022/12/04 08:48:48;;;;;;;;;;;;;;;5.07;58.39;101736.03;4948067;28;124202;-68
2022/12/04 08:51:17;;;;;;;;;;;;;;;5.09;58.12;101729.00;4959243;28;119257;-67
2022/12/04 08:53:44;;;;;;;;;;;;;;;5.11;58.01;101732.47;4956285;28;119329;-68
2022/12/04 08:56:11;;;;;;;;;;;;;;;5.13;58.35;101730.72;4936071;28;124210;-68
2022/12/04 08:58:38;;;;;;;;;;;;;;;5.13;58.06;101725.47;4946755;28;124407;-69
2022/12/04 09:01:06;;;;;;;;;;;;;;;5.11;57.99;101732.47;4938635;28;119159;-68
2022/12/04 09:03:33;;;;;;;;;;;;;;;5.11;58.19;101735.09;4933624;28;120982;-68
2022/12/04 09:06:00;;;;;;;;;;;;;;;5.11;58.24;101732.47;4949575;28;124092;-68
2022/12/04 09:08:27;;;;;;;;;;;;;;;5.13;58.07;101730.72;4949774;28;123694;-68
2022/12/04 09:10:54;;;;;;;;;;;;;;;5.16;58.19;101735.06;4953346;28;119433;-68
2022/12/04 09:13:21;;;;;;;;;;;;;;;5.16;57.78;101730.69;4954760;28;118280;-68
2022/12/04 09:15:48;;;;;;;;;;;;;;;5.18;58.03;101739.44;4956570;28;124747;-68
2022/12/04 09:18:15;;;;;;;;;;;;;;;5.20;57.99;101740.28;4955656;28;124849;-68
2022/12/04 09:20:42;;;;;;;;;;;;;;;5.21;57.90;101739.38;4963298;28;119737;-69
2022/12/04 09:23:09;;;;;;;;;;;;;;;5.22;58.04;101742.91;4947966;28;119922;-68
2022/12/04 09:25:36;;;;;;;;;;;;;;;5.22;58.15;101741.16;4945148;28;125610;-68
2022/12/04 09:28:03;;;;;;;;;;;;;;;5.23;57.90;101748.13;4943918;28;123003;-69
2022/12/04 09:30:30;;;;;;;;;;;;;;;5.24;57.87;101760.38;4963106;28;120553;-69
2022/12/04 09:32:57;;;;;;;;;;;;;;;5.24;57.77;101752.50;4962944;28;119495;-69
2022/12/04 09:35:24;;;;;;;;;;;;;;;5.24;57.93;101749.88;4965030;28;123994;-69
2022/12/04 09:37:51;;;;;;;;;;;;;;;5.21;57.63;101749.88;4955180;28;123933;-69
2022/12/04 09:40:25;;;;;;;;;;;;;;;5.20;57.77;101752.56;4957675;28;120349;-68
2022/12/04 09:43:02;;;;;;;;;;;;;;;5.19;57.98;101751.66;4957444;28;118811;-69
2022/12/04 09:45:32;;;;;;;;;;;;;;;5.20;58.10;101740.28;4951941;28;123117;-69
2022/12/04 09:48:00;;;;;;;;;;;;;;;5.21;57.92;101739.38;4940373;28;123499;-68
2022/12/04 09:50:39;;;;;;;;;;;;;;;5.23;57.65;101742.88;4963069;28;119619;-68
2022/12/04 09:53:23;;;;;;;;;;;;;;;5.23;57.92;101742.88;4962525;28;118746;-68
2022/12/04 09:55:56;;;;;;;;;;;;;;;5.23;57.67;101742.88;4953963;28;123530;-68
2022/12/04 09:58:43;;;;;;;;;;;;;;;5.20;57.76;101745.53;4936514;28;123984;-69
2022/12/04 10:01:33;;;;;;;;;;;;;;;5.17;57.55;101748.19;4941091;28;119455;-68
2022/12/04 10:04:00;;;;;;;;;;;;;;;5.14;57.46;101742.97;4910164;28;118201;-67
2022/12/04 10:06:38;;;;;;;;;;;;;;;5.13;57.60;101746.47;4947912;28;125471;-68
2022/12/04 10:09:12;;;;;;;;;;;;;;;5.15;57.88;101739.44;4967906;28;124022;-68
2022/12/04 10:11:59;;;;;;;;;;;;;;;5.16;58.03;101741.19;4967180;28;119464;-68
2022/12/04 10:14:29;;;;;;;;;;;;;;;5.18;58.07;101749.94;4970350;28;120229;-68
2022/12/04 10:17:12;;;;;;;;;;;;;;;5.19;57.60;101735.91;4950862;28;124399;-69
2022/12/04 10:19:57;;;;;;;;;;;;;;;5.21;58.02;101749.88;4932932;28;123975;-68
2022/12/04 10:22:29;;;;;;;;;;;;;;;5.21;57.64;101739.38;4950372;28;120448;-68
2022/12/04 10:24:58;;;;;;;;;;;;;;;5.22;57.80;101733.25;4948679;28;119278;-68
2022/12/04 10:27:31;;;;;;;;;;;;;;;5.22;57.92;101741.16;4963508;28;123719;-69
2022/12/04 10:30:01;;;;;;;;;;;;;;;5.23;57.81;101737.63;4961142;28;123991;-69
2022/12/04 10:32:30;;;;;;;;;;;;;;;5.22;57.66;101725.38;4945965;28;118869;-68
2022/12/04 10:35:01;;;;;;;;;;;;;;;5.22;57.58;101741.16;4973484;28;119151;-68
2022/12/04 10:37:31;;;;;;;;;;;;;;;5.21;57.48;101734.13;4947284;28;123134;-69
2022/12/04 10:40:06;;;;;;;;;;;;;;;5.20;57.53;101731.53;4967021;28;123123;-68
2022/12/04 10:42:39;;;;;;;;;;;;;;;5.20;57.62;101748.16;4963990;28;119551;-69
2022/12/04 10:45:06;;;;;;;;;;;;;;;5.21;57.80;101754.28;4947023;28;121440;-68
2022/12/04 10:47:33;;;;;;;;;;;;;;;5.21;57.92;101747.25;4944792;28;123796;-68
2022/12/04 10:50:03;;;;;;;;;;;;;;;5.24;57.95;101749.00;4958582;28;123832;-68
2022/12/04 10:52:30;;;;;;;;;;;;;;;5.26;58.01;101748.09;4953551;28;119442;-69
2022/12/04 10:55:00;;;;;;;;;;;;;;;5.29;57.58;101735.81;4960077;28;118231;-68
2022/12/04 10:57:35;;;;;;;;;;;;;;;5.31;57.79;101744.56;4966119;28;124699;-68
2022/12/04 11:00:03;;;;;;;;;;;;;;;5.31;57.56;101744.56;4952648;28;123937;-69
2022/12/04 11:02:31;;;;;;;;;;;;;;;5.32;57.64;101735.81;4964531;28;119695;-68
2022/12/04 11:05:00;;;;;;;;;;;;;;;5.32;57.61;101725.31;4960778;28;118450;-67
2022/12/04 11:07:28;;;;;;;;;;;;;;;5.33;57.81;101727.03;4950965;28;124245;-68
2022/12/04 11:10:02;;;;;;;;;;;;;;;5.33;57.82;101727.03;4946631;28;125046;-68
2022/12/04 11:12:29;;;;;;;;;;;;;;;5.32;57.82;101722.69;4931777;28;121818;-68
2022/12/04 11:15:02;;;;;;;;;;;;;;;5.32;57.73;101715.66;4932074;28;120500;-69
2022/12/04 11:17:29;;;;;;;;;;;;;;;5.33;57.90;101711.28;4957317;28;124944;-68
2022/12/04 11:20:14;;;;;;;;;;;;;;;5.35;57.96;101709.50;4955047;28;123967;-68
2022/12/04 11:22:53;;;;;;;;;;;;;;;5.37;58.01;101707.72;4979010;28;119434;-68
2022/12/04 11:25:21;;;;;;;;;;;;;;;5.38;57.59;101705.09;4948697;28;118832;-68
2022/12/04 11:27:51;;;;;;;;;;;;;;;5.39;57.58;101705.97;4931252;28;125512;-68
2022/12/04 11:30:20;;;;;;;;;;;;;;;5.40;57.83;101702.44;4935204;28;123901;-68
2022/12/04 11:32:47;;;;;;;;;;;;;;;5.41;57.79;101693.69;4954395;28;119615;-67
2022/12/04 11:35:20;;;;;;;;;;;;;;;5.42;57.61;101690.16;4955660;28;118343;-68
2022/12/04 11:37:55;;;;;;;;;;;;;;;5.42;57.50;101692.81;4955625;28;125832;-68
2022/12/04 11:40:22;;;;;;;;;;;;;;;5.41;57.60;101678.81;4955924;28;123599;-68
2022/12/04 11:42:57;;;;;;;;;;;;;;;5.42;57.88;101684.91;4952713;28;119198;-69
2022/12/04 11:45:23;;;;;;;;;;;;;;;5.42;57.70;101690.16;4958410;28;118926;-70
2022/12/04 11:47:55;;;;;;;;;;;;;;;5.43;57.93;101681.41;4950435;28;124407;-69
2022/12/04 11:50:31;;;;;;;;;;;;;;;5.45;57.83;101679.66;4943255;28;123473;-69
2022/12/04 11:53:06;;;;;;;;;;;;;;;5.44;57.47;101683.13;4941976;28;118841;-68
2022/12/04 11:55:41;;;;;;;;;;;;;;;5.44;57.75;101678.78;4944564;28;119686;-69
2022/12/04 11:58:25;;;;;;;;;;;;;;;5.44;57.76;101673.53;4958109;28;124223;-69
2022/12/04 12:01:12;;;;;;;;;;;;;;;5.44;57.70;101673.53;4958136;28;123812;-69
2022/12/04 12:03:57;;;;;;;;;;;;;;;5.41;57.17;101659.56;4963586;28;120653;-68
2022/12/04 12:06:33;;;;;;;;;;;;;;;5.39;57.63;101659.56;4959866;28;119533;-69
2022/12/04 12:09:26;;;;;;;;;;;;;;;5.39;57.51;101658.69;4958333;28;125246;-68
2022/12/04 12:12:01;;;;;;;;;;;;;;;5.40;57.46;101652.53;4970812;28;122859;-68
2022/12/04 12:14:39;;;;;;;;;;;;;;;5.42;57.48;101648.13;4963929;28;119931;-68
2022/12/04 12:17:12;;;;;;;;;;;;;;;5.44;57.70;101651.63;4960243;28;119083;-68
2022/12/04 12:19:48;;;;;;;;;;;;;;;5.47;57.82;101648.97;4930732;28;124730;-69
2022/12/04 12:22:34;;;;;;;;;;;;;;;5.50;57.82;101651.56;4947742;28;124311;-68
2022/12/04 12:25:04;;;;;;;;;;;;;;;5.52;57.62;101655.06;4915958;28;118856;-68
2022/12/04 12:27:43;;;;;;;;;;;;;;;5.55;57.50;101657.63;4929944;28;120437;-68
2022/12/04 12:30:18;;;;;;;;;;;;;;;5.57;57.89;101658.47;4959523;28;124387;-68
2022/12/04 12:33:09;;;;;;;;;;;;;;;5.58;57.77;101644.47;4958518;28;124440;-68
2022/12/04 12:35:43;;;;;;;;;;;;;;;5.60;57.65;101647.94;4961971;28;120280;-69
2022/12/04 12:38:18;;;;;;;;;;;;;;;5.60;57.65;101647.94;4947990;28;118858;-68
2022/12/04 12:40:47;;;;;;;;;;;;;;;5.60;57.64;101647.09;4946622;28;124096;-69
2022/12/04 12:43:19;;;;;;;;;;;;;;;5.59;57.45;101650.59;4971740;28;123981;-68
2022/12/04 12:45:52;;;;;;;;;;;;;;;5.62;57.38;101645.31;4946430;28;119356;-69
2022/12/04 12:48:25;;;;;;;;;;;;;;;5.64;57.69;101639.13;4955711;28;120224;-69
2022/12/04 12:51:06;;;;;;;;;;;;;;;5.65;57.34;101629.47;4954036;28;124071;-69
2022/12/04 12:53:57;;;;;;;;;;;;;;;5.64;57.33;101639.13;4954896;28;124190;-69
2022/12/04 12:56:35;;;;;;;;;;;;;;;5.62;57.28;101625.13;4939562;28;120500;-69
2022/12/04 12:59:03;;;;;;;;;;;;;;;5.63;57.36;101621.63;4947639;28;120323;-68
2022/12/04 13:01:38;;;;;;;;;;;;;;;5.65;57.51;101625.13;4930921;28;124926;-68
2022/12/04 13:04:09;;;;;;;;;;;;;;;5.68;57.53;101628.59;4946633;28;122761;-69